createdAt,value
2023-04-27T00:01:13.821Z,6.47
2023-04-27T00:03:41.916Z,6.41
2023-04-27T00:06:10.037Z,6.38
2023-04-27T00:08:37.114Z,6.40
2023-04-27T00:11:03.954Z,6.44
2023-04-27T00:13:30.728Z,6.40
2023-04-27T00:15:57.478Z,6.31
2023-04-27T00:18:24.179Z,6.37
2023-04-27T00:20:50.768Z,6.28
2023-04-27T00:23:17.471Z,6.41
2023-04-27T00:25:44.190Z,6.37
2023-04-27T00:28:10.766Z,6.35
2023-04-27T00:30:37.341Z,6.34
2023-04-27T00:33:04.101Z,6.22
2023-04-27T00:35:32.470Z,6.32
2023-04-27T00:37:59.313Z,6.28
2023-04-27T00:40:26.227Z,6.32
2023-04-27T00:42:52.832Z,6.31
2023-04-27T00:45:19.462Z,6.30
2023-04-27T00:47:46.381Z,6.28
2023-04-27T00:53:08.154Z,5.76
2023-04-27T00:55:34.795Z,5.81
2023-04-27T00:58:01.530Z,6.19
2023-04-27T01:00:28.410Z,6.16
2023-04-27T01:02:55.947Z,6.11
2023-04-27T01:05:25.632Z,6.10
2023-04-27T01:07:52.223Z,6.20
2023-04-27T01:10:18.817Z,5.08
2023-04-27T01:12:45.462Z,6.28
2023-04-27T01:15:12.001Z,6.29
2023-04-27T01:17:39.147Z,6.26
2023-04-27T01:20:07.745Z,6.22
2023-04-27T01:22:34.454Z,6.26
2023-04-27T01:25:01.299Z,6.09
2023-04-27T01:27:27.833Z,5.72
2023-04-27T01:29:54.340Z,6.17
2023-04-27T01:32:21.365Z,6.13
2023-04-27T01:34:47.975Z,6.14
2023-04-27T01:37:15.885Z,6.13
2023-04-27T01:39:42.498Z,5.86
2023-04-27T01:42:09.304Z,6.00
2023-04-27T01:44:35.944Z,5.88
2023-04-27T01:47:02.534Z,5.58
2023-04-27T01:49:29.092Z,5.91
2023-04-27T01:51:55.722Z,5.97
2023-04-27T01:54:22.357Z,6.04
2023-04-27T01:56:48.940Z,5.96
2023-04-27T01:59:15.692Z,6.07
2023-04-27T02:01:42.505Z,6.08
2023-04-27T02:04:09.246Z,5.87
2023-04-27T02:06:36.455Z,6.02
2023-04-27T02:09:03.059Z,5.90
2023-04-27T02:11:29.680Z,6.19
2023-04-27T02:13:56.276Z,6.16
2023-04-27T02:16:22.974Z,6.21
2023-04-27T02:18:50.515Z,6.31
2023-04-27T02:21:17.231Z,6.22
2023-04-27T02:23:43.860Z,6.14
2023-04-27T02:26:17.231Z,5.97
2023-04-27T02:28:43.791Z,6.23
2023-04-27T02:31:11.533Z,6.21
2023-04-27T02:33:38.113Z,5.71
2023-04-27T02:36:04.935Z,5.23
2023-04-27T02:38:31.587Z,6.06
2023-04-27T02:40:58.174Z,6.12
2023-04-27T02:43:24.964Z,6.20
2023-04-27T02:45:51.632Z,6.16
2023-04-27T02:48:18.376Z,6.22
2023-04-27T02:50:45.606Z,6.39
2023-04-27T02:53:12.590Z,6.09
2023-04-27T02:55:45.749Z,6.25
2023-04-27T02:58:13.484Z,6.37
2023-04-27T03:00:41.192Z,6.33
2023-04-27T03:03:08.334Z,6.22
2023-04-27T03:05:35.072Z,6.04
2023-04-27T03:08:01.760Z,6.13
2023-04-27T03:10:28.407Z,5.87
2023-04-27T03:12:54.988Z,6.04
2023-04-27T03:15:21.696Z,5.93
2023-04-27T03:17:48.350Z,6.03
2023-04-27T03:20:15.434Z,6.03
2023-04-27T03:22:41.998Z,6.10
2023-04-27T03:25:08.889Z,6.00
2023-04-27T03:27:35.623Z,5.74
2023-04-27T03:30:03.712Z,5.81
2023-04-27T03:32:30.448Z,5.95
2023-04-27T03:34:57.247Z,5.92
2023-04-27T03:37:23.853Z,6.04
2023-04-27T03:39:50.421Z,5.98
2023-04-27T03:42:17.045Z,5.90
2023-04-27T03:44:43.636Z,5.91
2023-04-27T03:47:10.679Z,5.90
2023-04-27T03:49:37.266Z,5.61
2023-04-27T03:52:04.135Z,5.90
2023-04-27T03:54:33.676Z,5.81
2023-04-27T03:57:00.276Z,5.74
2023-04-27T03:59:30.020Z,5.72
2023-04-27T04:01:59.528Z,5.55
2023-04-27T04:04:27.938Z,5.69
2023-04-27T04:06:54.726Z,5.57
2023-04-27T04:09:23.701Z,5.67
2023-04-27T04:11:52.146Z,5.55
2023-04-27T04:14:18.743Z,5.64
2023-04-27T04:16:45.297Z,5.74
2023-04-27T04:19:12.281Z,5.64
2023-04-27T04:21:38.933Z,5.81
2023-04-27T04:24:06.197Z,5.91
2023-04-27T04:26:33.720Z,5.97
2023-04-27T04:29:00.258Z,5.94
2023-04-27T04:31:27.838Z,5.89
2023-04-27T04:33:54.437Z,5.76
2023-04-27T04:36:20.993Z,5.81
2023-04-27T04:38:47.548Z,5.75
2023-04-27T04:41:14.287Z,5.96
2023-04-27T04:43:41.096Z,6.07
2023-04-27T04:46:07.826Z,6.26
2023-04-27T04:48:34.772Z,6.31
2023-04-27T04:51:01.399Z,6.31
2023-04-27T04:53:27.994Z,6.44
2023-04-27T04:55:54.673Z,6.60
2023-04-27T04:58:21.243Z,6.42
2023-04-27T05:00:47.820Z,6.50
2023-04-27T05:03:14.456Z,6.60
2023-04-27T05:05:41.256Z,6.66
2023-04-27T05:08:07.840Z,6.31
2023-04-27T05:10:34.414Z,6.66
2023-04-27T05:13:00.926Z,6.65
2023-04-27T05:15:27.531Z,6.63
2023-04-27T05:17:54.543Z,6.35
2023-04-27T05:20:21.539Z,6.38
2023-04-27T05:22:48.129Z,6.27
2023-04-27T05:25:14.750Z,6.31
2023-04-27T05:27:41.318Z,6.18
2023-04-27T05:30:08.433Z,6.17
2023-04-27T05:32:37.019Z,6.22
2023-04-27T05:35:05.196Z,6.09
2023-04-27T05:37:31.784Z,6.38
2023-04-27T05:39:58.472Z,6.21
2023-04-27T05:42:25.036Z,6.23
2023-04-27T05:44:51.622Z,6.68
2023-04-27T05:47:18.248Z,6.54
2023-04-27T05:49:44.836Z,6.68
2023-04-27T05:52:11.552Z,6.68
2023-04-27T05:54:38.095Z,6.82
2023-04-27T05:57:04.673Z,6.77
2023-04-27T05:59:31.259Z,6.58
2023-04-27T06:01:57.922Z,6.64
2023-04-27T06:04:24.783Z,6.89
2023-04-27T06:06:51.448Z,6.47
2023-04-27T06:09:18.055Z,6.84
2023-04-27T06:11:44.988Z,6.74
2023-04-27T06:14:11.536Z,6.94
2023-04-27T06:16:38.289Z,7.15
2023-04-27T06:19:05.036Z,7.00
2023-04-27T06:21:33.735Z,7.10
2023-04-27T06:24:01.265Z,6.87
2023-04-27T06:26:28.359Z,7.06
2023-04-27T06:28:56.273Z,7.05
2023-04-27T06:31:22.993Z,7.17
2023-04-27T06:33:49.690Z,7.01
2023-04-27T06:36:16.342Z,7.29
2023-04-27T06:38:43.250Z,7.50
2023-04-27T06:41:09.876Z,7.28
2023-04-27T06:43:36.482Z,7.59
2023-04-27T06:46:03.235Z,7.77
2023-04-27T06:48:29.874Z,7.71
2023-04-27T06:50:56.729Z,7.55
2023-04-27T06:53:23.311Z,7.52
2023-04-27T06:55:51.172Z,7.42
2023-04-27T06:58:17.759Z,7.90
2023-04-27T07:00:44.432Z,8.07
2023-04-27T07:03:11.438Z,8.33
2023-04-27T07:05:38.156Z,8.41
2023-04-27T07:08:08.274Z,8.45
2023-04-27T07:10:35.647Z,8.33
2023-04-27T07:13:02.400Z,8.09
2023-04-27T07:15:30.582Z,8.42
2023-04-27T07:17:59.581Z,8.78
2023-04-27T07:20:26.980Z,8.78
2023-04-27T07:22:53.515Z,9.23
2023-04-27T07:25:23.030Z,8.92
2023-04-27T07:27:49.687Z,9.42
2023-04-27T07:30:17.567Z,10.11
2023-04-27T07:32:44.366Z,10.16
2023-04-27T07:35:11.128Z,10.58
2023-04-27T07:37:38.458Z,10.80
2023-04-27T07:40:17.033Z,10.86
2023-04-27T07:42:43.714Z,10.90
2023-04-27T07:45:10.788Z,10.88
2023-04-27T07:47:38.279Z,10.69
2023-04-27T07:50:07.510Z,10.63
2023-04-27T07:52:34.267Z,11.58
2023-04-27T07:55:00.831Z,11.16
2023-04-27T07:57:27.564Z,11.28
2023-04-27T07:59:54.120Z,10.75
2023-04-27T08:02:20.759Z,10.49
2023-04-27T08:04:48.789Z,10.42
2023-04-27T08:07:17.651Z,10.04
2023-04-27T08:09:44.665Z,9.84
2023-04-27T08:12:11.462Z,10.50
2023-04-27T08:14:38.014Z,10.25
2023-04-27T08:17:04.761Z,10.22
2023-04-27T08:19:31.525Z,10.27
2023-04-27T08:21:58.147Z,11.15
2023-04-27T08:24:24.812Z,11.09
2023-04-27T08:26:51.501Z,11.55
2023-04-27T08:29:26.985Z,11.93
2023-04-27T08:31:56.866Z,11.99
2023-04-27T08:34:24.118Z,11.44
2023-04-27T08:36:50.863Z,11.62
2023-04-27T08:39:18.565Z,11.91
2023-04-27T08:41:45.440Z,11.73
2023-04-27T08:44:12.405Z,12.36
2023-04-27T08:46:39.459Z,12.54
2023-04-27T08:49:07.832Z,12.78
2023-04-27T08:51:34.988Z,12.42
2023-04-27T08:54:02.218Z,12.01
2023-04-27T08:56:29.781Z,12.50
2023-04-27T08:58:57.449Z,12.29
2023-04-27T09:01:26.272Z,12.92
2023-04-27T09:03:57.702Z,13.13
2023-04-27T09:06:35.664Z,12.44
2023-04-27T09:09:03.485Z,11.29
2023-04-27T09:11:35.473Z,11.64
2023-04-27T09:14:03.968Z,11.68
2023-04-27T09:16:31.379Z,11.94
2023-04-27T09:18:59.337Z,11.89
2023-04-27T09:21:28.271Z,12.20
2023-04-27T09:23:55.972Z,12.72
2023-04-27T09:26:27.448Z,12.78
2023-04-27T09:28:58.050Z,13.14
2023-04-27T09:31:35.537Z,13.43
2023-04-27T09:34:03.014Z,13.97
2023-04-27T09:36:32.456Z,14.13
2023-04-27T09:39:02.454Z,13.40
2023-04-27T09:41:29.637Z,13.38
2023-04-27T09:43:58.087Z,12.13
2023-04-27T09:46:26.068Z,12.17
2023-04-27T09:48:53.098Z,12.18
2023-04-27T09:51:19.631Z,12.36
2023-04-27T09:53:52.889Z,12.52
2023-04-27T09:56:51.265Z,12.77
2023-04-27T09:59:27.016Z,13.08
2023-04-27T10:02:07.219Z,13.61
2023-04-27T10:05:03.016Z,13.28
2023-04-27T10:07:31.554Z,13.08
2023-04-27T10:10:02.231Z,13.98
2023-04-27T10:12:36.372Z,14.40
2023-04-27T10:15:14.703Z,14.24
2023-04-27T10:17:49.179Z,12.54
2023-04-27T10:20:16.673Z,13.65
2023-04-27T10:22:50.313Z,13.87
2023-04-27T10:25:22.322Z,13.79
2023-04-27T10:27:54.813Z,13.70
2023-04-27T10:30:23.979Z,14.01
2023-04-27T10:32:55.189Z,15.24
2023-04-27T10:35:36.036Z,15.23
2023-04-27T10:38:06.414Z,14.42
2023-04-27T10:40:35.271Z,14.26
2023-04-27T10:43:13.050Z,13.32
2023-04-27T10:45:41.140Z,12.89
2023-04-27T10:48:08.264Z,11.90
2023-04-27T10:50:35.210Z,13.13
2023-04-27T10:53:07.687Z,13.23
2023-04-27T10:55:35.694Z,13.71
2023-04-27T10:58:03.869Z,14.04
2023-04-27T11:00:35.364Z,13.51
2023-04-27T11:03:12.707Z,14.87
2023-04-27T11:05:39.456Z,14.89
2023-04-27T11:08:07.154Z,13.99
2023-04-27T11:10:35.871Z,13.85
2023-04-27T11:13:11.543Z,13.46
2023-04-27T11:15:46.705Z,13.23
2023-04-27T11:18:13.971Z,13.99
2023-04-27T11:20:40.635Z,14.64
2023-04-27T11:23:08.116Z,14.66
2023-04-27T11:25:35.285Z,15.20
2023-04-27T11:28:01.856Z,15.87
2023-04-27T11:30:28.568Z,15.18
2023-04-27T11:32:55.319Z,15.22
2023-04-27T11:35:33.719Z,14.31
2023-04-27T11:38:00.433Z,15.67
2023-04-27T11:40:28.893Z,16.62
2023-04-27T11:42:59.498Z,15.99
2023-04-27T11:45:30.189Z,15.90
2023-04-27T11:47:59.957Z,16.10
2023-04-27T11:50:27.443Z,16.04
2023-04-27T11:52:54.154Z,15.14
2023-04-27T11:55:22.222Z,14.93
2023-04-27T11:57:49.209Z,15.74
2023-04-27T12:00:16.704Z,16.76
2023-04-27T12:02:44.434Z,16.86
2023-04-27T12:05:13.387Z,16.58
2023-04-27T12:07:41.354Z,16.84
2023-04-27T12:10:09.209Z,15.73
2023-04-27T12:12:36.235Z,16.06
2023-04-27T12:15:03.454Z,15.72
2023-04-27T12:17:30.259Z,16.41
2023-04-27T12:19:56.954Z,16.10
2023-04-27T12:22:23.613Z,16.68
2023-04-27T12:24:51.394Z,16.33
2023-04-27T12:27:18.086Z,16.10
2023-04-27T12:29:44.669Z,16.29
2023-04-27T12:32:11.506Z,15.13
2023-04-27T12:34:39.527Z,14.77
2023-04-27T12:37:06.737Z,14.01
2023-04-27T12:39:33.396Z,14.97
2023-04-27T12:42:00.071Z,14.50
2023-04-27T12:44:27.155Z,14.23
2023-04-27T12:46:54.111Z,14.16
2023-04-27T12:49:20.854Z,14.59
2023-04-27T12:51:48.160Z,14.65
2023-04-27T12:54:15.085Z,14.47
2023-04-27T12:56:42.465Z,15.05
2023-04-27T12:59:09.570Z,15.00
2023-04-27T13:01:36.399Z,14.88
2023-04-27T13:04:04.238Z,14.47
2023-04-27T13:06:34.738Z,14.32
2023-04-27T13:09:02.669Z,14.59
2023-04-27T13:11:29.670Z,14.57
2023-04-27T13:13:56.316Z,13.75
2023-04-27T13:16:25.656Z,13.65
2023-04-27T13:18:55.652Z,13.07
2023-04-27T13:21:22.609Z,13.09
2023-04-27T13:23:49.520Z,13.37
2023-04-27T13:26:16.611Z,12.84
2023-04-27T13:28:43.273Z,12.49
2023-04-27T13:31:10.371Z,12.45
2023-04-27T13:33:42.289Z,12.59
2023-04-27T13:36:10.441Z,12.51
2023-04-27T13:38:37.649Z,12.17
2023-04-27T13:41:05.268Z,12.05
2023-04-27T13:43:31.985Z,12.57
2023-04-27T13:46:01.082Z,13.17
2023-04-27T13:48:28.890Z,13.48
2023-04-27T13:50:56.140Z,14.04
2023-04-27T13:53:25.966Z,14.02
2023-04-27T13:55:57.340Z,14.35
2023-04-27T13:58:26.243Z,14.08
2023-04-27T14:00:53.926Z,13.96
2023-04-27T14:03:20.928Z,14.43
2023-04-27T14:05:49.161Z,15.61
2023-04-27T14:08:16.121Z,17.35
2023-04-27T14:10:43.200Z,17.71
2023-04-27T14:13:11.593Z,20.67
2023-04-27T14:15:38.214Z,22.17
2023-04-27T14:18:06.369Z,22.51
2023-04-27T14:20:34.566Z,22.75
2023-04-27T14:23:02.009Z,23.73
2023-04-27T14:25:32.903Z,25.51
2023-04-27T14:28:01.061Z,25.65
2023-04-27T14:30:27.922Z,27.27
2023-04-27T14:32:54.675Z,26.78
2023-04-27T14:35:21.539Z,27.50
2023-04-27T14:37:48.157Z,28.21
2023-04-27T14:40:15.147Z,25.18
2023-04-27T14:42:41.938Z,22.44
2023-04-27T14:45:09.306Z,22.07
2023-04-27T14:47:36.107Z,20.90
2023-04-27T14:50:03.632Z,20.09
2023-04-27T14:52:30.291Z,18.78
2023-04-27T14:54:57.141Z,18.50
2023-04-27T14:57:23.860Z,17.42
2023-04-27T14:59:50.505Z,16.51
2023-04-27T15:02:18.913Z,15.92
2023-04-27T15:04:45.990Z,15.07
2023-04-27T15:07:12.861Z,15.40
2023-04-27T15:09:39.464Z,15.01
2023-04-27T15:12:08.120Z,14.77
2023-04-27T15:14:34.729Z,14.51
2023-04-27T15:17:01.378Z,14.79
2023-04-27T15:19:28.076Z,15.00
2023-04-27T15:21:54.713Z,14.34
2023-04-27T15:24:21.422Z,14.49
2023-04-27T15:26:48.659Z,14.37
2023-04-27T15:29:15.489Z,14.73
2023-04-27T15:31:42.358Z,15.10
2023-04-27T15:34:08.937Z,15.44
2023-04-27T15:36:35.510Z,15.35
2023-04-27T15:39:02.091Z,15.21
2023-04-27T15:41:28.834Z,15.14
2023-04-27T15:43:55.618Z,15.50
2023-04-27T15:46:22.240Z,15.80
2023-04-27T15:48:48.857Z,14.52
2023-04-27T15:51:15.578Z,15.39
2023-04-27T15:53:42.273Z,15.19
2023-04-27T15:56:09.162Z,14.82
2023-04-27T15:58:36.017Z,15.14
2023-04-27T16:01:02.649Z,14.77
2023-04-27T16:03:29.387Z,14.55
2023-04-27T16:05:56.129Z,14.53
2023-04-27T16:08:22.859Z,14.04
2023-04-27T16:10:49.853Z,14.09
2023-04-27T16:13:17.172Z,14.14
2023-04-27T16:15:44.133Z,15.05
2023-04-27T16:18:11.481Z,15.24
2023-04-27T16:20:38.094Z,15.31
2023-04-27T16:23:04.734Z,15.28
2023-04-27T16:25:31.428Z,14.73
2023-04-27T16:27:59.139Z,15.31
2023-04-27T16:30:25.918Z,16.24
2023-04-27T16:32:53.038Z,16.15
2023-04-27T16:35:19.771Z,16.11
2023-04-27T16:37:46.504Z,15.22
2023-04-27T16:40:13.317Z,14.73
2023-04-27T16:42:39.939Z,15.05
2023-04-27T16:45:09.177Z,14.45
2023-04-27T16:47:37.349Z,14.68
2023-04-27T16:50:04.374Z,14.01
2023-04-27T16:52:31.227Z,14.38
2023-04-27T16:54:57.996Z,14.31
2023-04-27T16:57:24.743Z,14.35
2023-04-27T16:59:51.676Z,14.01
2023-04-27T17:02:25.328Z,13.91
2023-04-27T17:04:53.390Z,13.35
2023-04-27T17:07:19.997Z,13.54
2023-04-27T17:09:46.585Z,13.15
2023-04-27T17:12:14.918Z,13.44
2023-04-27T17:14:42.728Z,13.30
2023-04-27T17:17:10.627Z,13.34
2023-04-27T17:19:37.357Z,13.02
2023-04-27T17:22:04.703Z,13.12
2023-04-27T17:24:31.265Z,12.86
2023-04-27T17:26:57.877Z,13.00
2023-04-27T17:29:24.649Z,12.55
2023-04-27T17:31:51.359Z,12.60
2023-04-27T17:34:18.221Z,12.77
2023-04-27T17:36:46.069Z,12.60
2023-04-27T17:39:13.986Z,12.73
2023-04-27T17:41:41.110Z,12.46
2023-04-27T17:44:07.915Z,12.59
2023-04-27T17:46:34.636Z,12.53
2023-04-27T17:49:01.540Z,12.40
2023-04-27T17:51:28.194Z,12.03
2023-04-27T17:53:54.870Z,12.09
2023-04-27T17:56:21.512Z,11.74
2023-04-27T17:58:48.157Z,11.59
2023-04-27T18:01:14.832Z,11.75
2023-04-27T18:03:42.404Z,11.55
2023-04-27T18:06:11.616Z,11.50
2023-04-27T18:08:38.189Z,11.40
2023-04-27T18:11:04.862Z,11.23
2023-04-27T18:13:32.672Z,11.03
2023-04-27T18:15:59.933Z,10.98
2023-04-27T18:18:27.035Z,11.12
2023-04-27T18:20:53.885Z,11.15
2023-04-27T18:23:21.211Z,10.58
2023-04-27T18:25:49.386Z,10.63
2023-04-27T18:28:16.398Z,10.84
2023-04-27T18:30:42.918Z,10.74
2023-04-27T18:33:09.533Z,10.20
2023-04-27T18:35:36.211Z,10.44
2023-04-27T18:38:03.649Z,10.46
2023-04-27T18:40:30.575Z,10.27
2023-04-27T18:42:57.199Z,10.17
2023-04-27T18:45:23.939Z,10.14
2023-04-27T18:47:50.733Z,10.23
2023-04-27T18:50:17.659Z,10.19
2023-04-27T18:52:44.291Z,9.83
2023-04-27T18:55:11.424Z,10.16
2023-04-27T18:57:38.046Z,10.14
2023-04-27T19:00:05.952Z,10.13
2023-04-27T19:02:33.151Z,9.95
2023-04-27T19:05:11.014Z,9.87
2023-04-27T19:07:39.366Z,9.79
2023-04-27T19:10:06.831Z,9.93
2023-04-27T19:12:33.473Z,9.92
2023-04-27T19:15:00.063Z,9.76
2023-04-27T19:17:27.427Z,9.89
2023-04-27T19:19:54.514Z,9.87
2023-04-27T19:22:21.145Z,9.81
2023-04-27T19:24:48.172Z,9.73
2023-04-27T19:27:14.799Z,9.62
2023-04-27T19:29:52.702Z,9.71
2023-04-27T19:32:19.872Z,9.54
2023-04-27T19:34:47.340Z,9.63
2023-04-27T19:37:14.139Z,9.58
2023-04-27T19:39:40.743Z,9.43
2023-04-27T19:42:07.544Z,9.51
2023-04-27T19:44:34.171Z,9.55
2023-04-27T19:47:00.883Z,9.55
2023-04-27T19:49:31.114Z,9.51
2023-04-27T19:51:57.687Z,9.17
2023-04-27T19:54:24.229Z,9.30
2023-04-27T19:56:50.775Z,9.14
2023-04-27T19:59:17.377Z,9.07
2023-04-27T20:01:44.144Z,9.02
2023-04-27T20:04:11.166Z,9.15
2023-04-27T20:06:37.863Z,9.11
2023-04-27T20:09:04.601Z,8.67
2023-04-27T20:11:31.202Z,8.97
2023-04-27T20:13:57.775Z,9.03
2023-04-27T20:16:25.834Z,8.63
2023-04-27T20:18:53.020Z,8.74
2023-04-27T20:21:21.590Z,8.81
2023-04-27T20:23:48.979Z,8.90
2023-04-27T20:26:15.628Z,8.87
2023-04-27T20:28:42.806Z,8.26
2023-04-27T20:31:09.698Z,8.81
2023-04-27T20:33:36.464Z,8.67
2023-04-27T20:36:14.196Z,8.74
2023-04-27T20:38:46.190Z,8.66
2023-04-27T20:41:12.879Z,8.77
2023-04-27T20:43:40.323Z,8.76
2023-04-27T20:46:16.645Z,8.51
2023-04-27T20:48:43.457Z,8.74
2023-04-27T20:51:10.094Z,8.52
2023-04-27T20:53:36.996Z,8.56
2023-04-27T20:56:03.940Z,8.57
2023-04-27T20:58:30.567Z,8.11
2023-04-27T21:00:57.204Z,8.09
2023-04-27T21:03:24.087Z,8.54
2023-04-27T21:05:50.972Z,8.24
2023-04-27T21:08:17.558Z,8.57
2023-04-27T21:10:44.819Z,8.60
2023-04-27T21:13:11.414Z,8.62
2023-04-27T21:15:38.706Z,8.66
2023-04-27T21:18:09.377Z,8.61
2023-04-27T21:20:37.845Z,8.64
2023-04-27T21:23:05.587Z,8.73
2023-04-27T21:25:32.176Z,8.46
2023-04-27T21:27:59.232Z,8.73
2023-04-27T21:30:25.944Z,8.49
2023-04-27T21:32:52.594Z,8.76
2023-04-27T21:35:19.398Z,8.72
2023-04-27T21:37:46.144Z,8.69
2023-04-27T21:40:13.082Z,8.65
2023-04-27T21:42:39.615Z,8.68
2023-04-27T21:45:06.823Z,8.31
2023-04-27T21:47:33.482Z,8.45
2023-04-27T21:50:00.161Z,8.39
2023-04-27T21:52:26.754Z,8.17
2023-04-27T21:54:53.424Z,8.51
2023-04-27T21:57:20.272Z,8.01
2023-04-27T21:59:46.888Z,8.52
2023-04-27T22:02:13.723Z,8.46
2023-04-27T22:04:40.438Z,8.61
2023-04-27T22:07:10.530Z,8.49
2023-04-27T22:09:37.303Z,8.27
2023-04-27T22:12:04.410Z,8.60
2023-04-27T22:14:31.564Z,8.40
2023-04-27T22:17:00.912Z,8.36
2023-04-27T22:19:28.886Z,8.44
2023-04-27T22:21:55.624Z,8.51
2023-04-27T22:24:22.365Z,8.26
2023-04-27T22:26:49.045Z,8.13
2023-04-27T22:29:16.670Z,8.41
2023-04-27T22:31:44.576Z,8.18
2023-04-27T22:34:14.784Z,8.29
2023-04-27T22:36:41.602Z,7.99
2023-04-27T22:39:08.594Z,7.86
2023-04-27T22:41:35.328Z,8.18
2023-04-27T22:44:01.943Z,8.10
2023-04-27T22:46:28.485Z,8.12
2023-04-27T22:48:55.148Z,7.98
2023-04-27T22:51:21.915Z,8.13
2023-04-27T22:53:48.821Z,8.13
2023-04-27T22:56:15.405Z,8.13
2023-04-27T22:58:42.194Z,7.68
2023-04-27T23:01:08.964Z,7.93
2023-04-27T23:03:35.798Z,7.92
2023-04-27T23:06:02.445Z,7.91
2023-04-27T23:08:29.653Z,7.87
2023-04-27T23:10:56.962Z,7.84
2023-04-27T23:13:27.711Z,7.70
2023-04-27T23:15:54.607Z,7.29
2023-04-27T23:18:21.520Z,7.49
2023-04-27T23:20:53.699Z,7.49
2023-04-27T23:23:20.432Z,7.49
2023-04-27T23:25:47.081Z,7.56
2023-04-27T23:28:13.673Z,7.56
2023-04-27T23:30:40.428Z,7.60
2023-04-27T23:33:07.328Z,7.61
2023-04-27T23:35:34.048Z,7.57
2023-04-27T23:38:00.744Z,7.70
2023-04-27T23:40:27.348Z,7.35
2023-04-27T23:42:53.912Z,7.27
2023-04-27T23:45:21.078Z,7.41
2023-04-27T23:47:47.706Z,7.44
2023-04-27T23:50:14.376Z,7.34
2023-04-27T23:52:40.931Z,7.17
2023-04-27T23:55:08.011Z,7.23
2023-04-27T23:57:34.614Z,6.69
